sensor_id;sensor_type;location;lat;lon;timestamp;P1;durP1;ratioP1;P2;durP2;ratioP2
24451;SDS011;13350;50.984;5.822;2023-04-30T00:01:01;19.90;;;16.42;;
24451;SDS011;13350;50.984;5.822;2023-04-30T00:03:29;21.65;;;16.10;;
24451;SDS011;13350;50.984;5.822;2023-04-30T00:05:56;22.15;;;16.15;;
24451;SDS011;13350;50.984;5.822;2023-04-30T00:08:24;18.58;;;15.82;;
24451;SDS011;13350;50.984;5.822;2023-04-30T00:10:51;22.60;;;16.23;;
24451;SDS011;13350;50.984;5.822;2023-04-30T00:13:18;23.05;;;16.38;;
24451;SDS011;13350;50.984;5.822;2023-04-30T00:15:45;18.30;;;15.25;;
24451;SDS011;13350;50.984;5.822;2023-04-30T00:18:12;18.55;;;15.65;;
24451;SDS011;13350;50.984;5.822;2023-04-30T00:20:41;18.95;;;15.23;;
24451;SDS011;13350;50.984;5.822;2023-04-30T00:23:08;17.00;;;14.60;;
24451;SDS011;13350;50.984;5.822;2023-04-30T00:25:35;17.92;;;14.52;;
24451;SDS011;13350;50.984;5.822;2023-04-30T00:28:02;17.42;;;14.00;;
24451;SDS011;13350;50.984;5.822;2023-04-30T00:30:29;15.02;;;13.20;;
24451;SDS011;13350;50.984;5.822;2023-04-30T00:32:56;16.02;;;13.77;;
24451;SDS011;13350;50.984;5.822;2023-04-30T00:35:24;16.35;;;14.10;;
24451;SDS011;13350;50.984;5.822;2023-04-30T00:37:52;16.23;;;14.63;;
24451;SDS011;13350;50.984;5.822;2023-04-30T00:40:19;17.73;;;14.07;;
24451;SDS011;13350;50.984;5.822;2023-04-30T00:42:46;16.50;;;13.00;;
24451;SDS011;13350;50.984;5.822;2023-04-30T00:45:13;15.13;;;12.45;;
24451;SDS011;13350;50.984;5.822;2023-04-30T00:47:45;15.77;;;12.00;;
24451;SDS011;13350;50.984;5.822;2023-04-30T00:50:13;14.98;;;12.18;;
24451;SDS011;13350;50.984;5.822;2023-04-30T00:52:41;15.73;;;12.52;;
24451;SDS011;13350;50.984;5.822;2023-04-30T00:55:10;16.45;;;12.48;;
24451;SDS011;13350;50.984;5.822;2023-04-30T00:57:39;15.57;;;13.00;;
24451;SDS011;13350;50.984;5.822;2023-04-30T01:00:06;16.88;;;12.98;;
24451;SDS011;13350;50.984;5.822;2023-04-30T01:02:35;16.05;;;12.68;;
24451;SDS011;13350;50.984;5.822;2023-04-30T01:05:03;16.48;;;12.77;;
24451;SDS011;13350;50.984;5.822;2023-04-30T01:07:31;13.98;;;12.52;;
24451;SDS011;13350;50.984;5.822;2023-04-30T01:09:59;16.73;;;12.18;;
24451;SDS011;13350;50.984;5.822;2023-04-30T01:12:32;15.13;;;11.82;;
24451;SDS011;13350;50.984;5.822;2023-04-30T01:15:07;14.85;;;10.75;;
24451;SDS011;13350;50.984;5.822;2023-04-30T01:17:40;13.80;;;11.37;;
24451;SDS011;13350;50.984;5.822;2023-04-30T01:20:13;11.80;;;10.48;;
24451;SDS011;13350;50.984;5.822;2023-04-30T01:22:45;13.40;;;10.73;;
24451;SDS011;13350;50.984;5.822;2023-04-30T01:25:22;14.57;;;11.18;;
24451;SDS011;13350;50.984;5.822;2023-04-30T01:28:02;12.85;;;11.15;;
24451;SDS011;13350;50.984;5.822;2023-04-30T01:30:31;12.02;;;10.18;;
24451;SDS011;13350;50.984;5.822;2023-04-30T01:33:00;14.32;;;10.63;;
24451;SDS011;13350;50.984;5.822;2023-04-30T01:35:37;13.07;;;9.68;;
24451;SDS011;13350;50.984;5.822;2023-04-30T01:38:24;11.50;;;9.82;;
24451;SDS011;13350;50.984;5.822;2023-04-30T01:41:09;10.43;;;9.35;;
24451;SDS011;13350;50.984;5.822;2023-04-30T01:43:49;10.45;;;9.43;;
24451;SDS011;13350;50.984;5.822;2023-04-30T01:46:28;12.65;;;9.02;;
24451;SDS011;13350;50.984;5.822;2023-04-30T01:48:59;10.88;;;9.75;;
24451;SDS011;13350;50.984;5.822;2023-04-30T01:51:36;10.57;;;9.35;;
24451;SDS011;13350;50.984;5.822;2023-04-30T01:54:09;10.90;;;9.35;;
24451;SDS011;13350;50.984;5.822;2023-04-30T01:56:42;11.90;;;9.52;;
24451;SDS011;13350;50.984;5.822;2023-04-30T01:59:15;12.05;;;8.90;;
24451;SDS011;13350;50.984;5.822;2023-04-30T02:01:43;11.57;;;9.27;;
24451;SDS011;13350;50.984;5.822;2023-04-30T02:04:10;11.10;;;8.65;;
24451;SDS011;13350;50.984;5.822;2023-04-30T02:06:37;10.73;;;9.27;;
24451;SDS011;13350;50.984;5.822;2023-04-30T02:09:05;11.07;;;8.80;;
24451;SDS011;13350;50.984;5.822;2023-04-30T02:11:34;10.90;;;9.23;;
24451;SDS011;13350;50.984;5.822;2023-04-30T02:14:01;13.38;;;9.90;;
24451;SDS011;13350;50.984;5.822;2023-04-30T02:16:30;9.85;;;8.27;;
24451;SDS011;13350;50.984;5.822;2023-04-30T02:18:57;9.77;;;8.73;;
24451;SDS011;13350;50.984;5.822;2023-04-30T02:21:25;11.50;;;9.43;;
24451;SDS011;13350;50.984;5.822;2023-04-30T22:52:14;2.38;;;1.60;;
24451;SDS011;13350;50.984;5.822;2023-04-30T22:54:42;1.90;;;1.30;;
24451;SDS011;13350;50.984;5.822;2023-04-30T22:57:09;2.42;;;1.10;;
24451;SDS011;13350;50.984;5.822;2023-04-30T22:59:36;1.92;;;1.40;;
24451;SDS011;13350;50.984;5.822;2023-04-30T23:02:04;2.10;;;1.63;;
24451;SDS011;13350;50.984;5.822;2023-04-30T23:04:31;1.98;;;1.30;;
24451;SDS011;13350;50.984;5.822;2023-04-30T23:06:58;3.72;;;1.35;;
24451;SDS011;13350;50.984;5.822;2023-04-30T23:09:27;2.72;;;1.40;;
24451;SDS011;13350;50.984;5.822;2023-04-30T23:11:54;2.10;;;1.33;;
24451;SDS011;13350;50.984;5.822;2023-04-30T23:14:21;3.40;;;1.50;;
24451;SDS011;13350;50.984;5.822;2023-04-30T23:16:49;3.72;;;1.10;;
24451;SDS011;13350;50.984;5.822;2023-04-30T23:19:16;2.17;;;1.23;;
24451;SDS011;13350;50.984;5.822;2023-04-30T23:21:43;1.90;;;1.30;;
24451;SDS011;13350;50.984;5.822;2023-04-30T23:24:11;3.90;;;1.48;;
24451;SDS011;13350;50.984;5.822;2023-04-30T23:26:40;4.95;;;2.20;;
24451;SDS011;13350;50.984;5.822;2023-04-30T23:29:08;2.13;;;1.30;;
24451;SDS011;13350;50.984;5.822;2023-04-30T23:31:35;4.47;;;1.50;;
24451;SDS011;13350;50.984;5.822;2023-04-30T23:34:02;2.28;;;1.60;;
24451;SDS011;13350;50.984;5.822;2023-04-30T23:36:30;4.85;;;1.77;;
24451;SDS011;13350;50.984;5.822;2023-04-30T23:38:57;2.47;;;1.23;;
24451;SDS011;13350;50.984;5.822;2023-04-30T23:41:24;2.88;;;1.30;;
24451;SDS011;13350;50.984;5.822;2023-04-30T23:43:53;2.83;;;1.50;;
24451;SDS011;13350;50.984;5.822;2023-04-30T23:46:20;2.40;;;1.27;;
24451;SDS011;13350;50.984;5.822;2023-04-30T23:48:48;1.80;;;1.30;;
24451;SDS011;13350;50.984;5.822;2023-04-30T23:51:16;2.72;;;1.50;;
24451;SDS011;13350;50.984;5.822;2023-04-30T23:53:45;2.28;;;1.40;;
24451;SDS011;13350;50.984;5.822;2023-04-30T23:56:12;8.80;;;5.50;;
24451;SDS011;13350;50.984;5.822;2023-04-30T23:58:40;4.80;;;1.90;;
